createdAt,value
2022-08-31T00:00:04.909Z,15.72
2022-08-31T00:02:49.741Z,15.65
2022-08-31T00:05:17.590Z,15.68
2022-08-31T00:07:45.144Z,15.68
2022-08-31T00:10:18.866Z,15.67
2022-08-31T00:12:49.766Z,15.67
2022-08-31T00:15:19.838Z,15.67
2022-08-31T00:17:50.502Z,15.64
2022-08-31T00:20:32.640Z,15.63
2022-08-31T00:23:02.153Z,15.61
2022-08-31T00:25:29.759Z,15.55
2022-08-31T00:27:57.287Z,15.60
2022-08-31T00:30:24.969Z,15.58
2022-08-31T00:32:52.516Z,15.64
2022-08-31T00:35:20.570Z,15.58
2022-08-31T00:37:48.098Z,15.55
2022-08-31T00:40:15.820Z,15.49
2022-08-31T00:42:43.345Z,15.50
2022-08-31T00:45:11.433Z,15.51
2022-08-31T00:47:39.135Z,15.45
2022-08-31T00:50:10.438Z,15.41
2022-08-31T00:52:43.029Z,15.41
2022-08-31T00:55:17.454Z,15.38
2022-08-31T00:57:49.135Z,15.33
2022-08-31T01:00:25.291Z,15.38
2022-08-31T01:02:53.181Z,15.36
2022-08-31T01:05:20.883Z,15.31
2022-08-31T01:07:49.166Z,15.30
2022-08-31T01:10:19.887Z,15.29
2022-08-31T01:12:51.740Z,15.24
2022-08-31T01:15:20.310Z,15.12
2022-08-31T01:17:50.231Z,15.14
2022-08-31T01:20:27.563Z,15.18
2022-08-31T01:23:20.046Z,15.17
2022-08-31T01:25:49.756Z,15.08
2022-08-31T01:28:17.331Z,15.10
2022-08-31T01:30:45.620Z,15.10
2022-08-31T01:33:13.377Z,15.06
2022-08-31T01:35:45.912Z,15.02
2022-08-31T01:38:13.654Z,15.01
2022-08-31T01:40:52.883Z,14.92
2022-08-31T01:43:20.430Z,14.91
2022-08-31T01:45:48.023Z,14.94
2022-08-31T01:48:15.650Z,14.92
2022-08-31T01:50:43.303Z,14.95
2022-08-31T01:53:11.425Z,14.81
2022-08-31T01:55:39.488Z,14.84
2022-08-31T01:58:07.933Z,14.81
2022-08-31T02:00:35.807Z,14.84
2022-08-31T02:03:05.769Z,14.76
2022-08-31T02:05:33.306Z,14.80
2022-08-31T02:08:00.959Z,14.70
2022-08-31T02:10:28.569Z,14.74
2022-08-31T02:12:56.223Z,14.61
2022-08-31T02:15:23.744Z,14.62
2022-08-31T02:17:52.660Z,14.61
2022-08-31T02:20:20.779Z,14.59
2022-08-31T02:22:48.649Z,14.54
2022-08-31T02:25:16.824Z,14.52
2022-08-31T02:27:44.401Z,14.55
2022-08-31T02:30:16.515Z,14.54
2022-08-31T02:32:44.291Z,14.56
2022-08-31T02:35:12.935Z,14.48
2022-08-31T02:37:40.469Z,14.49
2022-08-31T02:40:11.932Z,14.48
2022-08-31T02:42:52.263Z,14.45
2022-08-31T02:45:21.722Z,14.40
2022-08-31T02:47:49.320Z,14.44
2022-08-31T02:50:17.154Z,14.36
2022-08-31T02:52:47.659Z,14.33
2022-08-31T02:55:15.539Z,14.31
2022-08-31T02:57:43.021Z,14.29
2022-08-31T03:00:11.802Z,14.33
2022-08-31T03:02:41.056Z,14.32
2022-08-31T03:05:10.159Z,14.32
2022-08-31T03:07:39.369Z,14.28
2022-08-31T03:10:09.866Z,14.33
2022-08-31T03:12:38.085Z,14.35
2022-08-31T03:15:08.033Z,14.38
2022-08-31T03:17:35.753Z,14.31
2022-08-31T03:20:06.194Z,14.34
2022-08-31T03:22:35.452Z,14.32
2022-08-31T03:25:04.201Z,14.27
2022-08-31T03:27:31.736Z,14.33
2022-08-31T03:29:59.746Z,14.22
2022-08-31T03:32:28.360Z,14.24
2022-08-31T03:34:58.816Z,14.23
2022-08-31T03:37:26.784Z,14.23
2022-08-31T03:39:54.573Z,14.20
2022-08-31T03:42:22.188Z,14.23
2022-08-31T03:44:50.235Z,14.22
2022-08-31T03:47:17.866Z,14.12
2022-08-31T03:49:45.570Z,13.92
2022-08-31T03:52:13.161Z,14.18
2022-08-31T03:54:40.721Z,13.92
2022-08-31T03:57:08.699Z,14.10
2022-08-31T03:59:36.610Z,14.18
2022-08-31T04:02:04.354Z,14.20
2022-08-31T04:04:31.860Z,14.16
2022-08-31T04:06:59.338Z,14.07
2022-08-31T04:09:26.866Z,14.13
2022-08-31T04:11:54.493Z,14.16
2022-08-31T04:14:22.046Z,14.12
2022-08-31T04:16:49.662Z,14.11
2022-08-31T04:19:17.556Z,14.13
2022-08-31T04:21:45.853Z,14.11
2022-08-31T04:24:14.214Z,14.13
2022-08-31T04:26:41.756Z,14.13
2022-08-31T04:29:13.466Z,14.11
2022-08-31T04:31:41.630Z,14.07
2022-08-31T04:34:09.106Z,14.09
2022-08-31T04:36:38.038Z,14.10
2022-08-31T04:39:07.502Z,14.01
2022-08-31T04:41:39.666Z,14.03
2022-08-31T04:44:07.546Z,14.04
2022-08-31T04:46:37.604Z,14.03
2022-08-31T04:49:07.858Z,14.03
2022-08-31T04:51:36.027Z,14.03
2022-08-31T04:54:06.905Z,13.92
2022-08-31T04:56:36.588Z,14.00
2022-08-31T04:59:07.964Z,13.94
2022-08-31T05:01:43.462Z,13.92
2022-08-31T05:04:13.831Z,13.79
2022-08-31T05:06:43.593Z,13.73
2022-08-31T05:09:14.877Z,13.60
2022-08-31T05:11:42.807Z,13.60
2022-08-31T05:14:11.125Z,13.54
2022-08-31T05:16:40.755Z,13.53
2022-08-31T05:19:08.833Z,13.47
2022-08-31T05:21:39.034Z,13.48
2022-08-31T05:24:13.596Z,13.45
2022-08-31T05:26:45.438Z,13.43
2022-08-31T05:29:15.214Z,13.36
2022-08-31T05:31:46.231Z,13.45
2022-08-31T05:34:17.782Z,13.46
2022-08-31T05:36:47.443Z,13.45
2022-08-31T05:39:14.934Z,13.36
2022-08-31T05:41:45.032Z,13.35
2022-08-31T05:44:13.406Z,13.39
2022-08-31T05:46:41.551Z,13.39
2022-08-31T05:49:10.878Z,13.39
2022-08-31T05:51:39.922Z,13.32
2022-08-31T05:54:10.710Z,13.40
2022-08-31T05:56:41.099Z,13.39
2022-08-31T05:59:10.402Z,13.41
2022-08-31T06:01:40.900Z,13.38
2022-08-31T06:04:10.409Z,13.47
2022-08-31T06:06:38.939Z,13.48
2022-08-31T06:09:08.833Z,13.52
2022-08-31T06:11:38.275Z,13.58
2022-08-31T06:14:06.677Z,13.58
2022-08-31T06:16:35.819Z,13.73
2022-08-31T06:19:07.096Z,13.75
2022-08-31T06:21:38.023Z,13.80
2022-08-31T06:24:07.548Z,13.96
2022-08-31T06:26:37.020Z,13.88
2022-08-31T06:29:07.397Z,13.97
2022-08-31T06:31:38.086Z,13.99
2022-08-31T06:34:08.278Z,14.07
2022-08-31T06:36:36.461Z,14.17
2022-08-31T06:39:04.707Z,14.24
2022-08-31T06:41:36.786Z,14.44
2022-08-31T06:44:07.449Z,14.53
2022-08-31T06:46:36.849Z,14.59
2022-08-31T06:49:05.125Z,14.62
2022-08-31T06:51:38.056Z,14.74
2022-08-31T06:54:27.896Z,14.76
2022-08-31T06:56:59.340Z,14.76
2022-08-31T06:59:29.904Z,14.98
2022-08-31T07:01:59.674Z,15.04
2022-08-31T07:04:28.094Z,15.09
2022-08-31T07:06:56.006Z,15.30
2022-08-31T07:09:23.815Z,15.41
2022-08-31T07:11:53.642Z,15.43
2022-08-31T07:14:24.904Z,15.45
2022-08-31T07:16:55.069Z,15.56
2022-08-31T07:19:23.143Z,15.46
2022-08-31T07:21:57.325Z,15.82
2022-08-31T07:24:27.792Z,15.79
2022-08-31T07:27:15.073Z,15.68
2022-08-31T07:29:43.220Z,15.89
2022-08-31T07:32:13.643Z,15.95
2022-08-31T07:34:41.372Z,15.79
2022-08-31T07:37:26.532Z,16.29
2022-08-31T07:40:12.930Z,16.48
2022-08-31T07:42:44.404Z,16.40
2022-08-31T07:45:22.522Z,16.44
2022-08-31T07:47:52.381Z,16.63
2022-08-31T07:50:21.567Z,16.78
2022-08-31T07:52:54.504Z,16.80
2022-08-31T07:55:35.037Z,16.89
2022-08-31T07:58:03.414Z,16.92
2022-08-31T08:00:33.135Z,17.14
2022-08-31T08:03:07.704Z,17.46
2022-08-31T08:05:38.654Z,17.42
2022-08-31T08:08:11.891Z,17.46
2022-08-31T08:10:52.171Z,17.59
2022-08-31T08:13:21.199Z,17.71
2022-08-31T08:15:50.829Z,18.00
2022-08-31T08:18:20.088Z,18.13
2022-08-31T08:20:48.064Z,18.35
2022-08-31T08:23:27.961Z,18.32
2022-08-31T08:25:57.774Z,18.02
2022-08-31T08:28:43.108Z,18.22
2022-08-31T08:31:17.414Z,18.62
2022-08-31T08:33:46.452Z,18.30
2022-08-31T08:36:18.168Z,18.29
2022-08-31T08:38:48.011Z,18.96
2022-08-31T08:41:19.990Z,18.94
2022-08-31T08:43:52.656Z,18.74
2022-08-31T08:46:35.237Z,18.84
2022-08-31T08:49:15.676Z,19.13
2022-08-31T08:51:44.262Z,18.54
2022-08-31T08:54:22.434Z,19.06
2022-08-31T08:56:49.951Z,19.00
2022-08-31T08:59:19.948Z,18.93
2022-08-31T09:01:50.463Z,19.44
2022-08-31T09:05:16.497Z,19.82
2022-08-31T09:08:05.093Z,19.90
2022-08-31T09:10:39.067Z,20.10
2022-08-31T09:13:55.881Z,20.22
2022-08-31T09:16:59.917Z,19.87
2022-08-31T09:19:27.901Z,20.22
2022-08-31T09:22:01.862Z,21.32
2022-08-31T09:24:30.834Z,21.03
2022-08-31T09:27:17.934Z,20.88
2022-08-31T09:29:59.602Z,20.75
2022-08-31T09:32:36.125Z,21.68
2022-08-31T09:35:09.095Z,21.70
2022-08-31T09:37:46.204Z,22.47
2022-08-31T09:40:19.663Z,21.97
2022-08-31T09:43:26.212Z,21.67
2022-08-31T09:46:08.247Z,21.99
2022-08-31T09:48:56.311Z,22.31
2022-08-31T09:51:30.183Z,22.29
2022-08-31T09:54:35.273Z,21.98
2022-08-31T09:57:06.364Z,22.55
2022-08-31T09:59:41.938Z,22.98
2022-08-31T10:02:22.648Z,22.71
2022-08-31T10:04:56.149Z,22.37
2022-08-31T10:07:43.248Z,22.30
2022-08-31T10:10:30.491Z,22.45
2022-08-31T10:13:03.685Z,22.04
2022-08-31T10:15:41.234Z,22.35
2022-08-31T10:18:16.084Z,22.54
2022-08-31T10:21:04.710Z,22.57
2022-08-31T10:23:54.071Z,22.42
2022-08-31T10:26:31.565Z,22.74
2022-08-31T10:29:06.235Z,23.41
2022-08-31T10:31:36.817Z,22.81
2022-08-31T10:34:30.774Z,23.12
2022-08-31T10:37:08.125Z,22.26
2022-08-31T10:39:44.858Z,22.60
2022-08-31T10:42:32.369Z,22.85
2022-08-31T10:45:09.251Z,23.26
2022-08-31T10:47:41.545Z,23.98
2022-08-31T10:50:11.540Z,24.33
2022-08-31T10:52:53.368Z,23.68
2022-08-31T10:55:37.230Z,24.05
2022-08-31T10:58:32.794Z,24.03
2022-08-31T11:01:18.871Z,23.24
2022-08-31T11:04:05.016Z,23.04
2022-08-31T11:06:35.501Z,23.16
2022-08-31T11:09:20.314Z,23.66
2022-08-31T11:11:58.267Z,23.44
2022-08-31T11:14:48.404Z,23.14
2022-08-31T11:17:22.422Z,23.21
2022-08-31T11:20:02.394Z,23.68
2022-08-31T11:22:42.071Z,23.57
2022-08-31T11:25:25.262Z,23.98
2022-08-31T11:28:08.175Z,23.43
2022-08-31T11:30:42.229Z,24.04
2022-08-31T11:33:14.539Z,24.26
2022-08-31T11:36:04.089Z,24.57
2022-08-31T11:38:48.739Z,24.35
2022-08-31T11:41:46.687Z,24.38
2022-08-31T11:44:29.733Z,23.74
2022-08-31T11:47:06.777Z,23.98
2022-08-31T11:49:36.795Z,24.40
2022-08-31T11:52:10.367Z,24.56
2022-08-31T11:54:42.662Z,25.08
2022-08-31T11:57:15.564Z,24.42
2022-08-31T11:59:46.364Z,23.64
2022-08-31T12:02:20.127Z,23.76
2022-08-31T12:04:48.008Z,24.62
2022-08-31T12:07:38.078Z,25.53
2022-08-31T12:10:08.597Z,25.44
2022-08-31T12:13:18.794Z,24.80
2022-08-31T12:16:25.118Z,25.41
2022-08-31T12:19:39.473Z,25.63
2022-08-31T12:22:56.694Z,25.17
2022-08-31T12:25:35.419Z,25.98
2022-08-31T12:28:07.637Z,25.71
2022-08-31T12:30:35.268Z,26.11
2022-08-31T12:33:05.532Z,25.28
2022-08-31T12:35:34.053Z,25.71
2022-08-31T12:38:11.459Z,25.75
2022-08-31T12:40:49.061Z,25.96
2022-08-31T12:43:22.106Z,25.72
2022-08-31T12:46:17.627Z,25.55
2022-08-31T12:49:07.677Z,26.11
2022-08-31T12:51:52.910Z,25.62
2022-08-31T12:54:39.168Z,25.02
2022-08-31T12:57:45.698Z,24.91
2022-08-31T13:00:27.416Z,26.58
2022-08-31T13:02:58.641Z,26.12
2022-08-31T13:05:32.819Z,26.07
2022-08-31T13:08:00.957Z,25.58
2022-08-31T13:10:38.493Z,25.44
2022-08-31T13:13:21.019Z,25.26
2022-08-31T13:15:48.688Z,25.03
2022-08-31T13:18:23.290Z,25.91
2022-08-31T13:20:56.548Z,25.17
2022-08-31T13:23:30.377Z,26.15
2022-08-31T13:26:03.327Z,25.87
2022-08-31T13:28:35.026Z,25.77
2022-08-31T13:31:09.221Z,25.99
2022-08-31T13:33:41.114Z,25.90
2022-08-31T13:36:16.146Z,26.25
2022-08-31T13:38:51.709Z,25.88
2022-08-31T13:41:30.069Z,25.98
2022-08-31T13:44:02.756Z,25.80
2022-08-31T13:46:43.198Z,25.11
2022-08-31T13:49:35.643Z,24.78
2022-08-31T13:52:08.742Z,25.04
2022-08-31T13:54:37.626Z,25.12
2022-08-31T13:57:35.854Z,25.16
2022-08-31T14:00:24.950Z,25.17
2022-08-31T14:02:53.925Z,24.87
2022-08-31T14:05:34.513Z,24.54
2022-08-31T14:08:07.204Z,24.12
2022-08-31T14:10:43.024Z,24.10
2022-08-31T14:13:27.777Z,24.08
2022-08-31T14:16:02.065Z,24.10
2022-08-31T14:18:40.253Z,23.82
2022-08-31T14:21:20.555Z,23.73
2022-08-31T14:23:52.652Z,23.96
2022-08-31T14:26:22.865Z,23.60
2022-08-31T14:28:53.673Z,23.75
2022-08-31T14:31:24.521Z,23.97
2022-08-31T14:34:10.672Z,23.58
2022-08-31T14:36:51.122Z,23.82
2022-08-31T14:39:18.619Z,23.31
2022-08-31T14:41:46.219Z,23.71
2022-08-31T14:44:14.425Z,23.42
2022-08-31T14:46:43.371Z,23.41
2022-08-31T14:49:11.339Z,23.54
2022-08-31T14:51:39.338Z,23.44
2022-08-31T14:54:11.379Z,23.39
2022-08-31T14:56:46.783Z,23.37
2022-08-31T14:59:16.375Z,23.20
2022-08-31T15:01:45.540Z,23.38
2022-08-31T15:04:15.423Z,23.37
2022-08-31T15:06:43.979Z,23.05
2022-08-31T15:09:11.647Z,23.43
2022-08-31T15:11:41.046Z,23.47
2022-08-31T15:14:12.278Z,23.29
2022-08-31T15:16:42.553Z,23.22
2022-08-31T15:19:13.491Z,23.18
2022-08-31T15:21:44.530Z,22.99
2022-08-31T15:24:12.771Z,23.26
2022-08-31T15:26:42.836Z,23.26
2022-08-31T15:29:13.737Z,23.41
2022-08-31T15:31:49.127Z,23.39
2022-08-31T15:34:24.656Z,23.11
2022-08-31T15:36:56.135Z,23.13
2022-08-31T15:39:32.365Z,23.26
2022-08-31T15:42:00.917Z,23.00
2022-08-31T15:44:28.469Z,23.24
2022-08-31T15:47:13.565Z,23.09
2022-08-31T15:49:43.566Z,23.02
2022-08-31T15:52:11.091Z,22.91
2022-08-31T15:54:41.003Z,22.97
2022-08-31T15:57:11.328Z,22.91
2022-08-31T15:59:43.685Z,22.88
2022-08-31T16:02:14.242Z,23.00
2022-08-31T16:04:43.381Z,22.91
2022-08-31T16:07:13.706Z,22.87
2022-08-31T16:09:44.462Z,22.90
2022-08-31T16:12:16.954Z,22.80
2022-08-31T16:14:45.249Z,22.74
2022-08-31T16:17:19.843Z,22.80
2022-08-31T16:19:49.282Z,22.68
2022-08-31T16:22:18.123Z,22.71
2022-08-31T16:24:46.861Z,22.53
2022-08-31T16:27:16.992Z,22.43
2022-08-31T16:29:45.632Z,22.55
2022-08-31T16:32:13.690Z,22.53
2022-08-31T16:34:42.611Z,22.51
2022-08-31T16:37:10.627Z,22.49
2022-08-31T16:39:44.090Z,22.37
2022-08-31T16:42:13.234Z,22.48
2022-08-31T16:44:43.694Z,22.43
2022-08-31T16:47:11.853Z,22.27
2022-08-31T16:49:41.253Z,22.29
2022-08-31T16:52:18.070Z,22.22
2022-08-31T16:54:50.925Z,22.21
2022-08-31T16:57:21.621Z,22.20
2022-08-31T16:59:50.307Z,22.19
2022-08-31T17:02:20.006Z,22.13
2022-08-31T17:04:52.551Z,22.03
2022-08-31T17:07:22.073Z,21.94
2022-08-31T17:09:50.014Z,22.04
2022-08-31T17:12:21.682Z,21.96
2022-08-31T17:14:52.521Z,21.87
2022-08-31T17:17:23.618Z,21.86
2022-08-31T17:19:53.106Z,21.85
2022-08-31T17:22:29.987Z,21.78
2022-08-31T17:25:02.916Z,21.72
2022-08-31T17:27:34.927Z,21.69
2022-08-31T17:30:05.780Z,21.64
2022-08-31T17:32:36.441Z,21.58
2022-08-31T17:35:07.875Z,21.53
2022-08-31T17:37:36.446Z,21.54
2022-08-31T17:40:08.016Z,21.50
2022-08-31T17:42:36.263Z,21.35
2022-08-31T17:45:06.353Z,21.32
2022-08-31T17:47:35.858Z,21.27
2022-08-31T17:50:03.469Z,21.20
2022-08-31T17:52:30.975Z,21.20
2022-08-31T17:55:01.803Z,21.12
2022-08-31T17:57:29.574Z,21.03
2022-08-31T17:59:57.234Z,21.02
2022-08-31T18:02:32.522Z,20.97
2022-08-31T18:05:01.134Z,20.93
2022-08-31T18:07:29.571Z,20.84
2022-08-31T18:09:57.485Z,20.80
2022-08-31T18:12:25.751Z,20.74
2022-08-31T18:14:57.934Z,20.67
2022-08-31T18:17:26.543Z,20.50
2022-08-31T18:19:54.646Z,20.47
2022-08-31T18:22:22.312Z,20.40
2022-08-31T18:24:49.846Z,20.35
2022-08-31T18:27:17.526Z,20.30
2022-08-31T18:29:46.211Z,20.25
2022-08-31T18:32:14.895Z,20.17
2022-08-31T18:34:46.301Z,20.05
2022-08-31T18:37:16.205Z,20.05
2022-08-31T18:40:04.213Z,20.00
2022-08-31T18:42:51.597Z,19.88
2022-08-31T18:45:19.956Z,19.80
2022-08-31T18:50:50.976Z,19.70
2022-08-31T18:53:29.515Z,19.64
2022-08-31T18:56:08.858Z,19.53
2022-08-31T18:58:37.163Z,19.45
2022-08-31T19:01:10.246Z,19.40
2022-08-31T19:03:39.349Z,19.33
2022-08-31T19:06:08.165Z,19.32
2022-08-31T19:08:36.170Z,19.29
2022-08-31T19:11:08.100Z,19.20
2022-08-31T19:13:36.193Z,19.15
2022-08-31T19:16:15.065Z,19.07
2022-08-31T19:18:44.778Z,19.06
2022-08-31T19:21:24.257Z,18.97
2022-08-31T19:23:52.572Z,18.94
2022-08-31T19:26:23.041Z,18.86
2022-08-31T19:28:51.396Z,18.80
2022-08-31T19:31:20.955Z,18.74
2022-08-31T19:33:49.089Z,18.66
2022-08-31T19:36:16.831Z,18.60
2022-08-31T19:38:47.195Z,18.50
2022-08-31T19:41:26.324Z,18.41
2022-08-31T19:44:07.365Z,18.38
2022-08-31T19:46:35.863Z,18.33
2022-08-31T19:49:03.448Z,18.26
2022-08-31T19:51:32.021Z,18.28
2022-08-31T19:54:00.862Z,18.18
2022-08-31T19:56:31.018Z,18.12
2022-08-31T19:58:59.957Z,18.06
2022-08-31T20:01:33.799Z,18.01
2022-08-31T20:04:04.136Z,17.98
2022-08-31T20:06:32.501Z,17.89
2022-08-31T20:09:00.593Z,17.85
2022-08-31T20:11:31.011Z,17.77
2022-08-31T20:14:00.213Z,17.68
2022-08-31T20:16:33.822Z,17.60
2022-08-31T20:19:04.742Z,17.59
2022-08-31T20:21:35.038Z,17.51
2022-08-31T20:24:06.993Z,17.44
2022-08-31T20:26:43.583Z,17.45
2022-08-31T20:29:13.806Z,17.34
2022-08-31T20:31:45.502Z,17.28
2022-08-31T20:34:18.580Z,17.28
2022-08-31T20:36:49.994Z,17.22
2022-08-31T20:39:19.892Z,17.23
2022-08-31T20:41:49.934Z,17.14
2022-08-31T20:44:24.003Z,17.06
2022-08-31T20:47:15.326Z,17.07
2022-08-31T20:49:45.979Z,17.04
2022-08-31T20:52:16.146Z,16.95
2022-08-31T20:54:44.522Z,16.97
2022-08-31T20:57:14.446Z,16.94
2022-08-31T20:59:42.492Z,16.96
2022-08-31T21:02:10.619Z,17.00
2022-08-31T21:04:44.639Z,16.99
2022-08-31T21:07:14.564Z,16.95
2022-08-31T21:09:44.645Z,16.96
2022-08-31T21:12:18.034Z,16.97
2022-08-31T21:14:48.685Z,16.92
2022-08-31T21:17:16.929Z,16.90
2022-08-31T21:19:45.341Z,16.90
2022-08-31T21:22:16.947Z,16.86
2022-08-31T21:24:44.574Z,16.84
2022-08-31T21:27:14.988Z,16.79
2022-08-31T21:29:46.805Z,16.72
2022-08-31T21:32:15.522Z,16.69
2022-08-31T21:34:43.030Z,16.65
2022-08-31T21:37:10.657Z,16.56
2022-08-31T21:39:38.638Z,16.57
2022-08-31T21:42:06.899Z,16.55
2022-08-31T21:44:35.803Z,16.47
2022-08-31T21:47:03.395Z,16.45
2022-08-31T21:49:30.997Z,16.46
2022-08-31T21:51:59.941Z,16.44
2022-08-31T21:54:29.686Z,16.39
2022-08-31T21:57:00.197Z,16.43
2022-08-31T21:59:32.519Z,16.39
2022-08-31T22:02:06.694Z,16.36
2022-08-31T22:04:38.621Z,16.36
2022-08-31T22:07:07.691Z,16.32
2022-08-31T22:09:36.916Z,16.26
2022-08-31T22:12:06.721Z,16.30
2022-08-31T22:14:37.991Z,16.21
2022-08-31T22:17:07.752Z,16.22
2022-08-31T22:19:38.887Z,16.18
2022-08-31T22:22:11.838Z,16.14
2022-08-31T22:24:41.256Z,16.11
2022-08-31T22:27:11.114Z,16.11
2022-08-31T22:29:40.369Z,16.13
2022-08-31T22:32:15.082Z,16.11
2022-08-31T22:34:43.664Z,15.96
2022-08-31T22:37:13.806Z,15.95
2022-08-31T22:39:42.677Z,15.93
2022-08-31T22:42:13.139Z,15.96
2022-08-31T22:44:41.005Z,15.93
2022-08-31T22:47:09.365Z,15.86
2022-08-31T22:49:36.868Z,15.88
2022-08-31T22:52:05.075Z,15.86
2022-08-31T22:54:34.420Z,15.74
2022-08-31T22:57:02.156Z,15.70
2022-08-31T22:59:30.512Z,15.66
2022-08-31T23:02:02.012Z,15.65
2022-08-31T23:04:31.658Z,15.65
2022-08-31T23:07:01.203Z,15.61
2022-08-31T23:09:31.129Z,15.54
2022-08-31T23:12:01.269Z,15.50
2022-08-31T23:14:32.048Z,15.50
2022-08-31T23:17:01.362Z,15.42
2022-08-31T23:19:36.966Z,15.44
2022-08-31T23:22:09.204Z,15.34
2022-08-31T23:24:38.888Z,15.33
2022-08-31T23:27:10.245Z,15.33
2022-08-31T23:29:41.301Z,15.30
2022-08-31T23:32:11.164Z,15.24
2022-08-31T23:34:39.743Z,15.21
2022-08-31T23:37:08.686Z,15.12
2022-08-31T23:39:39.304Z,15.12
2022-08-31T23:42:12.101Z,15.01
2022-08-31T23:44:41.794Z,14.95
2022-08-31T23:47:10.973Z,15.02
2022-08-31T23:49:39.185Z,15.00
2022-08-31T23:52:07.185Z,14.95
2022-08-31T23:54:37.291Z,14.95
2022-08-31T23:57:06.071Z,14.88
2022-08-31T23:59:36.366Z,14.91
